createdAt,value
2023-09-04T00:13:28.356Z,12.85
2023-09-04T00:29:10.865Z,12.78
2023-09-04T00:44:53.865Z,12.72
2023-09-04T01:00:36.292Z,12.62
2023-09-04T01:16:19.273Z,12.53
2023-09-04T01:32:01.913Z,12.43
2023-09-04T01:47:43.954Z,12.38
2023-09-04T02:03:26.842Z,12.45
2023-09-04T02:19:09.586Z,12.52
2023-09-04T02:34:52.165Z,12.54
2023-09-04T02:50:34.401Z,12.55
2023-09-04T03:06:16.929Z,12.45
2023-09-04T03:21:59.838Z,12.3
2023-09-04T03:37:42.865Z,12.16
2023-09-04T03:53:25.471Z,11.98
2023-09-04T03:54:13.896Z,12.13
2023-09-04T04:09:56.172Z,11.86
2023-09-04T04:25:38.474Z,11.7
2023-09-04T04:41:21.361Z,11.66
2023-09-04T04:57:03.702Z,11.7
2023-09-04T05:12:45.792Z,11.84
2023-09-04T05:28:28.783Z,12.25
2023-09-04T05:44:11.458Z,12.87
2023-09-04T05:59:53.851Z,13.63
2023-09-04T06:15:36.019Z,14.39
2023-09-04T06:31:18.251Z,15.17
2023-09-04T06:47:00.804Z,16
2023-09-04T07:34:08.512Z,18.17
2023-09-04T07:49:51.222Z,18.74
2023-09-04T08:05:33.482Z,19.28
2023-09-04T08:21:16.045Z,19.76
2023-09-04T08:36:58.436Z,21.71
2023-09-04T08:52:40.838Z,23.17
2023-09-04T09:08:22.954Z,24.41
2023-09-04T09:24:05.665Z,24.96
2023-09-04T09:39:48.504Z,26.17
2023-09-04T09:55:31.049Z,27.11
2023-09-04T10:11:13.534Z,28.2
2023-09-04T10:26:55.551Z,28.97
2023-09-04T10:42:38.370Z,30.68
2023-09-04T10:58:20.041Z,32.18
2023-09-04T11:29:45.052Z,34.4
2023-09-04T11:45:27.716Z,35.06
2023-09-04T12:01:09.864Z,36.75
2023-09-04T12:16:51.943Z,38.52
2023-09-04T12:32:34.387Z,39.79
2023-09-04T12:48:16.892Z,40.65
2023-09-04T13:03:58.824Z,39.91
2023-09-04T13:35:23.497Z,40.43
2023-09-04T13:51:05.834Z,41.24
2023-09-04T14:06:48.411Z,41.52
2023-09-04T14:22:30.250Z,41.62
2023-09-04T14:38:19.236Z,40.74
2023-09-04T14:53:55.149Z,40.48
2023-09-04T15:25:19.682Z,40.43
2023-09-04T15:41:01.925Z,40.03
2023-09-04T15:56:43.996Z,38.52
2023-09-04T16:12:25.936Z,33.66
2023-09-04T16:28:08.815Z,30.15
2023-09-04T16:43:50.934Z,27.89
2023-09-04T16:59:33.602Z,26.39
2023-09-04T17:15:15.619Z,25.31
2023-09-04T17:30:58.249Z,24.32
2023-09-04T17:46:40.112Z,23.39
2023-09-04T18:02:23.091Z,22.52
2023-09-04T18:18:06.088Z,21.75
2023-09-04T18:33:48.185Z,21.04
2023-09-04T18:49:30.730Z,20.37
2023-09-04T19:05:12.848Z,19.78
2023-09-04T19:20:55.145Z,19.35
2023-09-04T19:36:37.607Z,18.95
2023-09-04T19:52:20.362Z,18.64
2023-09-04T20:08:02.309Z,18.32
2023-09-04T20:23:45.122Z,18.08
2023-09-04T20:39:27.311Z,17.81
2023-09-04T20:55:09.753Z,17.62
2023-09-04T21:10:52.089Z,17.45
2023-09-04T21:26:34.999Z,17.21
2023-09-04T21:42:17.665Z,16.99
2023-09-04T21:58:00.446Z,16.78
2023-09-04T22:13:43.084Z,16.6
2023-09-04T22:29:25.181Z,16.44
2023-09-04T22:45:08.243Z,16.26
2023-09-04T23:00:50.768Z,16.11
2023-09-04T23:16:32.849Z,15.95
2023-09-04T23:32:15.928Z,15.8
2023-09-04T23:47:58.119Z,15.69
